sensor_id;sensor_type;location;lat;lon;timestamp;pressure;altitude;pressure_sealevel;temperature;humidity
46382;BME280;66809;52.974;-2.514;2023-11-18T00:00:01;1008.5576384695155;;;6.4875837290273966;44.74472477993507
46382;BME280;66809;52.974;-2.514;2023-11-18T00:02:00;1008.5071637493638;;;6.450470865135644;44.777452336474006
46382;BME280;66809;52.974;-2.514;2023-11-18T00:04:01;1008.4584133041748;;;6.4251028605554446;44.81183014575938
46382;BME280;66809;52.974;-2.514;2023-11-18T00:06:01;1008.4103636091883;;;6.3951913787439265;44.84272600382841
46382;BME280;66809;52.974;-2.514;2023-11-18T00:08:00;1008.3654416028668;;;6.373761882404633;44.87585351153065
46382;BME280;66809;52.974;-2.514;2023-11-18T00:10:01;1008.323948787292;;;6.340244953996465;44.89939233331075
46382;BME280;66809;52.974;-2.514;2023-11-18T00:12:00;1008.2805595440639;;;6.3193436734823685;44.91702732594669
46382;BME280;66809;52.974;-2.514;2023-11-18T00:14:01;1008.2314760049657;;;6.282872348054458;44.94722775748487
46382;BME280;66809;52.974;-2.514;2023-11-18T00:16:00;1008.1796519136649;;;6.255888260315757;44.97820741425857
46382;BME280;66809;52.974;-2.514;2023-11-18T00:18:00;1008.125368272669;;;6.225634784811506;45.010165375565194
46382;BME280;66809;52.974;-2.514;2023-11-18T00:20:01;1008.0698993059392;;;6.191773433943097;45.04909441588833
46382;BME280;66809;52.974;-2.514;2023-11-18T00:22:01;1008.0137725671623;;;6.152170758847746;45.09282148587875
46382;BME280;66809;52.974;-2.514;2023-11-18T00:24:00;1007.9538437999887;;;6.114131956700232;45.1378781435749
46382;BME280;66809;52.974;-2.514;2023-11-18T00:26:00;1007.8927337168119;;;6.082207755277364;45.18535977537066
46382;BME280;66809;52.974;-2.514;2023-11-18T00:28:00;1007.8315784589206;;;6.04210286509021;45.22755831698317
46382;BME280;66809;52.974;-2.514;2023-11-18T00:30:01;1007.7708175818151;;;6.030108577175922;45.255177707868455
46382;BME280;66809;52.974;-2.514;2023-11-18T00:32:01;1007.707503256697;;;6.006048314211455;45.29012748320172
46382;BME280;66809;52.974;-2.514;2023-11-18T00:34:01;1007.6440628739482;;;5.979592401154266;45.315899390118524
46382;BME280;66809;52.974;-2.514;2023-11-18T00:36:00;1007.5836424601476;;;5.955122296993789;45.34971841081743
46382;BME280;66809;52.974;-2.514;2023-11-18T00:38:01;1007.5248896356276;;;5.92637102936117;45.37601210990657
46382;BME280;66809;52.974;-2.514;2023-11-18T00:40:00;1007.4669518286225;;;5.900572299153576;45.40250379608403
46382;BME280;66809;52.974;-2.514;2023-11-18T00:42:00;1007.40722852135;;;5.876386715666874;45.429580139185965
46382;BME280;66809;52.974;-2.514;2023-11-18T00:44:01;1007.3520047371771;;;5.854026170377272;45.446220067821145
46382;BME280;66809;52.974;-2.514;2023-11-18T00:46:00;1007.301687494669;;;5.8438779883981375;45.46664960024318
46382;BME280;66809;52.974;-2.514;2023-11-18T00:48:00;1007.2459918760279;;;5.81887278214062;45.49288835310304
46382;BME280;66809;52.974;-2.514;2023-11-18T00:50:01;1007.187864799629;;;5.80381803736411;45.53004040584622
46382;BME280;66809;52.974;-2.514;2023-11-18T00:52:00;1007.1272431057839;;;5.783092180195964;45.57316085723194
46382;BME280;66809;52.974;-2.514;2023-11-18T00:54:00;1007.0667169584316;;;5.759746866244444;45.61861049153039
46382;BME280;66809;52.974;-2.514;2023-11-18T00:56:01;1007.0036026696032;;;5.7386214553454975;45.66380357852987
46382;BME280;66809;52.974;-2.514;2023-11-18T00:58:00;1006.9424570321875;;;5.720463669886829;45.695290323606194
46382;BME280;66809;52.974;-2.514;2023-11-18T01:00:01;1006.882792285321;;;5.707108002041966;45.75045177292763
46382;BME280;66809;52.974;-2.514;2023-11-18T01:02:01;1006.8246900609688;;;5.7007611241178235;45.79418877623924
46382;BME280;66809;52.974;-2.514;2023-11-18T01:04:00;1006.7679852461949;;;5.695464451800373;45.8372536209911
46382;BME280;66809;52.974;-2.514;2023-11-18T01:06:01;1006.7104383123561;;;5.69176408250845;45.8794704096979
46382;BME280;66809;52.974;-2.514;2023-11-18T01:08:01;1006.652358310803;;;5.682345840661284;45.916689490107856
46382;BME280;66809;52.974;-2.514;2023-11-18T01:10:00;1006.5911003482447;;;5.679611658853412;45.95998550199762
46382;BME280;66809;52.974;-2.514;2023-11-18T01:12:01;1006.531964147004;;;5.6729389323783685;46.0097772333705
46382;BME280;66809;52.974;-2.514;2023-11-18T01:14:01;1006.4748613871683;;;5.671374403337225;46.0514741691734
46382;BME280;66809;52.974;-2.514;2023-11-18T01:16:00;1006.4188988427102;;;5.672901677434988;46.091840119407614
46382;BME280;66809;52.974;-2.514;2023-11-18T01:18:00;1006.3629287962998;;;5.666541638224183;46.13275604374811
46382;BME280;66809;52.974;-2.514;2023-11-18T01:20:01;1006.3086306084746;;;5.673687781321194;46.160924895148675
46382;BME280;66809;52.974;-2.514;2023-11-18T01:22:00;1006.2525400719007;;;5.677334092058506;46.17868272529327
46382;BME280;66809;52.974;-2.514;2023-11-18T01:24:00;1006.197722846018;;;5.686842918947469;46.19732018787464
46382;BME280;66809;52.974;-2.514;2023-11-18T01:26:01;1006.1410171023955;;;5.691186561254022;46.21914858962521
46382;BME280;66809;52.974;-2.514;2023-11-18T01:28:00;1006.0840311827583;;;5.695990474311177;46.25139643344416
46382;BME280;66809;52.974;-2.514;2023-11-18T01:30:00;1006.0250282001774;;;5.6961650861090884;46.294357820386836
46382;BME280;66809;52.974;-2.514;2023-11-18T01:32:01;1005.969794146192;;;5.6903800077507105;46.32800383001522
46382;BME280;66809;52.974;-2.514;2023-11-18T01:34:01;1005.9161683992571;;;5.691270582324013;46.36608925035963
46382;BME280;66809;52.974;-2.514;2023-11-18T01:36:00;1005.8608940280907;;;5.701048270526193;46.392775239911686
46382;BME280;66809;52.974;-2.514;2023-11-18T01:38:01;1005.8037484284052;;;5.710681301572399;46.42823655545776
46382;BME280;66809;52.974;-2.514;2023-11-18T01:40:01;1005.7448812134666;;;5.713846892946291;46.4701768862703
46382;BME280;66809;52.974;-2.514;2023-11-18T01:42:00;1005.6880034421047;;;5.710830702655519;46.5205240597594
46382;BME280;66809;52.974;-2.514;2023-11-18T01:44:01;1005.6260805543709;;;5.714123490847469;46.57964119796954
46382;BME280;66809;52.974;-2.514;2023-11-18T01:46:03;1005.5637567113259;;;5.708897671317946;46.633054781806806
46382;BME280;66809;52.974;-2.514;2023-11-18T01:48:01;1005.5066964761592;;;5.718276829508936;46.688791263151714
46382;BME280;66809;52.974;-2.514;2023-11-18T01:50:01;1005.4517593321577;;;5.7197975256494225;46.72899592617853
46382;BME280;66809;52.974;-2.514;2023-11-18T01:52:01;1005.3941084719524;;;5.7234942439843755;46.771733488719455
46382;BME280;66809;52.974;-2.514;2023-11-18T01:54:02;1005.337282062179;;;5.7282999756326864;46.81080052626199
46382;BME280;66809;52.974;-2.514;2023-11-18T01:56:00;1005.2887677689758;;;5.736523350472091;46.85130053419677
46382;BME280;66809;52.974;-2.514;2023-11-18T01:58:00;1005.2437059888765;;;5.7429253930278215;46.89106145295043
46382;BME280;66809;52.974;-2.514;2023-11-18T02:00:02;1005.1984450518454;;;5.758577621283151;46.910971793637565
46382;BME280;66809;52.974;-2.514;2023-11-18T02:02:01;1005.1549726993795;;;5.765788040236421;46.93888123984071
46382;BME280;66809;52.974;-2.514;2023-11-18T02:04:01;1005.111240015948;;;5.774685364972382;46.97082434356066
46382;BME280;66809;52.974;-2.514;2023-11-18T02:06:02;1005.068154738111;;;5.779902778061881;47.01250905621736
46382;BME280;66809;52.974;-2.514;2023-11-18T02:08:01;1005.0237787185519;;;5.780417102945696;47.05739896734636
46382;BME280;66809;52.974;-2.514;2023-11-18T02:10:00;1004.9815048335278;;;5.794876327083139;47.0917302705866
46382;BME280;66809;52.974;-2.514;2023-11-18T02:12:08;1004.9392040808093;;;5.804439221973884;47.12277015946862
46382;BME280;66809;52.974;-2.514;2023-11-18T02:14:01;1004.8962711560021;;;5.821225714991285;47.151803520373214
46382;BME280;66809;52.974;-2.514;2023-11-18T02:16:02;1004.8544527518599;;;5.8284715999686165;47.17841660756485
46382;BME280;66809;52.974;-2.514;2023-11-18T02:18:02;1004.814126436309;;;5.838666460090713;47.20244426226822
46382;BME280;66809;52.974;-2.514;2023-11-18T02:20:00;1004.7757527113608;;;5.8402832353200695;47.23820078799256
46382;BME280;66809;52.974;-2.514;2023-11-18T02:22:00;1004.7380813311986;;;5.850340009966633;47.27675750915855
46382;BME280;66809;52.974;-2.514;2023-11-18T02:24:00;1004.701015490826;;;5.864698428712996;47.318553979837766
46382;BME280;66809;52.974;-2.514;2023-11-18T02:26:00;1004.6658558150973;;;5.881728569856921;47.35437183757249
46382;BME280;66809;52.974;-2.514;2023-11-18T02:28:01;1004.6289216286858;;;5.897187597414145;47.38397706507315
46382;BME280;66809;52.974;-2.514;2023-11-18T02:30:03;1004.5913055533155;;;5.910588218639046;47.42208160216908
46382;BME280;66809;52.974;-2.514;2023-11-18T02:32:11;1004.5469078487511;;;5.91909068953052;47.4640154300813
46382;BME280;66809;52.974;-2.514;2023-11-18T02:34:04;1004.4972326061041;;;5.919329604318883;47.50925723760511
46382;BME280;66809;52.974;-2.514;2023-11-18T02:36:05;1004.4488884923934;;;5.922811569282573;47.547179396164545
46382;BME280;66809;52.974;-2.514;2023-11-18T02:38:01;1004.4011098592765;;;5.927383905335701;47.58651052995303
46382;BME280;66809;52.974;-2.514;2023-11-18T02:40:03;1004.3548485829089;;;5.936535149673945;47.621436166739876
46382;BME280;66809;52.974;-2.514;2023-11-18T02:42:02;1004.3093062144092;;;5.948742750835219;47.65605045996462
46382;BME280;66809;52.974;-2.514;2023-11-18T02:44:01;1004.2671720103591;;;5.948667793884621;47.69799605080247
46382;BME280;66809;52.974;-2.514;2023-11-18T02:46:02;1004.2223585528093;;;5.9510173449747725;47.72529703598856
46382;BME280;66809;52.974;-2.514;2023-11-18T02:48:00;1004.1743043312715;;;5.963604844505361;47.74534326728486
46382;BME280;66809;52.974;-2.514;2023-11-18T02:50:00;1004.1263901180046;;;5.975217762314495;47.771772518298725
46382;BME280;66809;52.974;-2.514;2023-11-18T02:52:01;1004.0825741571293;;;5.986385384313296;47.801682140882384
46382;BME280;66809;52.974;-2.514;2023-11-18T02:54:00;1004.0373300227727;;;5.9974624251316575;47.8249614550722
46382;BME280;66809;52.974;-2.514;2023-11-18T02:56:01;1003.9892074698929;;;6.013334964697615;47.84194939649077
46382;BME280;66809;52.974;-2.514;2023-11-18T02:58:01;1003.9362583884633;;;6.019957291966599;47.871518239583615
46382;BME280;66809;52.974;-2.514;2023-11-18T03:00:01;1003.881649810292;;;6.021582470416603;47.902342830495286
46382;BME280;66809;52.974;-2.514;2023-11-18T03:02:00;1003.8244571185099;;;6.02837757317397;47.94777294392525
46382;BME280;66809;52.974;-2.514;2023-11-18T03:04:01;1003.7657012723147;;;6.027910736199133;47.98099207371539
46382;BME280;66809;52.974;-2.514;2023-11-18T03:06:01;1003.707718233505;;;6.0297207470279215;48.009785897337
46382;BME280;66809;52.974;-2.514;2023-11-18T03:08:00;1003.647865911778;;;6.035971574004082;48.04326696767217
46382;BME280;66809;52.974;-2.514;2023-11-18T03:10:01;1003.5822688964962;;;6.034249239158862;48.08972455460487
46382;BME280;66809;52.974;-2.514;2023-11-18T03:12:01;1003.5168313064697;;;6.030838168538839;48.13993847300348
46382;BME280;66809;52.974;-2.514;2023-11-18T03:14:00;1003.4506791395602;;;6.0312732187292655;48.18773361047974
46382;BME280;66809;52.974;-2.514;2023-11-18T03:16:01;1003.381451752094;;;6.032019129166204;48.23737785557351
46382;BME280;66809;52.974;-2.514;2023-11-18T03:18:01;1003.3128293622884;;;6.032195564375629;48.281844813360586
46382;BME280;66809;52.974;-2.514;2023-11-18T03:20:00;1003.2395106077846;;;6.035892294740774;48.31966271284144
46382;BME280;66809;52.974;-2.514;2023-11-18T03:22:00;1003.168854407691;;;6.039111972926585;48.349979788959885
46382;BME280;66809;52.974;-2.514;2023-11-18T03:24:01;1003.1003271680875;;;6.029396764775815;48.38374403147491
46382;BME280;66809;52.974;-2.514;2023-11-18T03:26:01;1003.0350295128397;;;6.025974413924421;48.40441002047858
46382;BME280;66809;52.974;-2.514;2023-11-18T03:28:01;1002.971804097306;;;6.026408429797676;48.421244545993574
46382;BME280;66809;52.974;-2.514;2023-11-18T03:30:01;1002.9098591821681;;;6.0402814327934164;48.42969629724648
46382;BME280;66809;52.974;-2.514;2023-11-18T03:32:00;1002.8539528070086;;;6.06475367107111;48.43709335279111
46382;BME280;66809;52.974;-2.514;2023-11-18T03:34:01;1002.8011685925946;;;6.0774859235361145;48.43860625844981
46382;BME280;66809;52.974;-2.514;2023-11-18T03:36:01;1002.7469991975632;;;6.083975733423858;48.45051190412971
46382;BME280;66809;52.974;-2.514;2023-11-18T03:38:00;1002.6925936329866;;;6.108676692649902;48.453113341371
46382;BME280;66809;52.974;-2.514;2023-11-18T03:40:01;1002.6387215970852;;;6.118174308114377;48.46049636757892
46382;BME280;66809;52.974;-2.514;2023-11-18T03:42:00;1002.5867708042603;;;6.127033373585274;48.46729775965652
46382;BME280;66809;52.974;-2.514;2023-11-18T03:44:00;1002.5335686568543;;;6.152734095970609;48.465087993857686
46382;BME280;66809;52.974;-2.514;2023-11-18T03:46:01;1002.4803819411693;;;6.174939744927702;48.47125949195537
46382;BME280;66809;52.974;-2.514;2023-11-18T03:48:00;1002.4305023606333;;;6.1911334987699345;48.47126515940397
46382;BME280;66809;52.974;-2.514;2023-11-18T03:50:00;1002.3796772699857;;;6.200572291785422;48.477398349148174
46382;BME280;66809;52.974;-2.514;2023-11-18T03:52:00;1002.3251096658482;;;6.214783240555968;48.47515760429012
46382;BME280;66809;52.974;-2.514;2023-11-18T03:54:01;1002.2653118294895;;;6.227379218579789;48.48166137456017
46382;BME280;66809;52.974;-2.514;2023-11-18T03:56:01;1002.2012181382794;;;6.24649490633209;48.48271500236437
46382;BME280;66809;52.974;-2.514;2023-11-18T03:58:00;1002.1416725287;;;6.270727209765163;48.47521123821507
46382;BME280;66809;52.974;-2.514;2023-11-18T04:00:01;1002.090590126334;;;6.30089766292788;48.46723260115555
46382;BME280;66809;52.974;-2.514;2023-11-18T04:02:01;1002.0464723262183;;;6.317372331865119;48.447421115059136
46382;BME280;66809;52.974;-2.514;2023-11-18T04:04:00;1002.0040987114901;;;6.344679643983412;48.43482838422173
46382;BME280;66809;52.974;-2.514;2023-11-18T04:06:01;1001.9600907987029;;;6.372953165715346;48.419239094741755
46382;BME280;66809;52.974;-2.514;2023-11-18T04:08:00;1001.9186896799652;;;6.399581816224327;48.39825800133622
46382;BME280;66809;52.974;-2.514;2023-11-18T04:10:00;1001.8827487938504;;;6.416451385187448;48.38165161816163
46382;BME280;66809;52.974;-2.514;2023-11-18T04:12:01;1001.8483541944892;;;6.443728809066587;48.35561715705754
46382;BME280;66809;52.974;-2.514;2023-11-18T04:14:00;1001.8168923890184;;;6.4635192168096305;48.33584904272752
46382;BME280;66809;52.974;-2.514;2023-11-18T04:16:00;1001.7869830273874;;;6.4875788263773755;48.315864986264266
46382;BME280;66809;52.974;-2.514;2023-11-18T04:18:01;1001.7560249800384;;;6.51728255995785;48.29287172607256
46382;BME280;66809;52.974;-2.514;2023-11-18T04:20:00;1001.7244272159231;;;6.542725495776311;48.270673698464904
46382;BME280;66809;52.974;-2.514;2023-11-18T04:22:00;1001.6906911624748;;;6.564698555429191;48.25579225312304
46382;BME280;66809;52.974;-2.514;2023-11-18T04:24:01;1001.6535277490674;;;6.603197047340798;48.23012291457038
46382;BME280;66809;52.974;-2.514;2023-11-18T04:26:01;1001.6146745725054;;;6.627100666649936;48.21975614894767
46382;BME280;66809;52.974;-2.514;2023-11-18T04:28:01;1001.5741578913118;;;6.6510127006345385;48.209676784070595
46382;BME280;66809;52.974;-2.514;2023-11-18T04:30:00;1001.5324523762854;;;6.669820257505271;48.19401328708812
46382;BME280;66809;52.974;-2.514;2023-11-18T04:32:00;1001.4912467035466;;;6.68897340471077;48.18527202728676
46382;BME280;66809;52.974;-2.514;2023-11-18T04:34:01;1001.4512540169679;;;6.703993472725717;48.18828613215927
46382;BME280;66809;52.974;-2.514;2023-11-18T04:36:00;1001.4124941940357;;;6.733021446333597;48.19278708788588
46382;BME280;66809;52.974;-2.514;2023-11-18T04:38:01;1001.3743275950243;;;6.740402694435868;48.194935715728434
46382;BME280;66809;52.974;-2.514;2023-11-18T04:40:01;1001.3367745078764;;;6.76811349484892;48.1918018279542
46382;BME280;66809;52.974;-2.514;2023-11-18T04:42:00;1001.2987000502902;;;6.801192979183638;48.18097719069362
46382;BME280;66809;52.974;-2.514;2023-11-18T04:44:01;1001.26209742961;;;6.812859889680953;48.159524635145836
46382;BME280;66809;52.974;-2.514;2023-11-18T04:46:01;1001.2271649601713;;;6.835522028664729;48.140443539457856
46382;BME280;66809;52.974;-2.514;2023-11-18T04:48:00;1001.1941262093151;;;6.857461644598154;48.12639205590428
46382;BME280;66809;52.974;-2.514;2023-11-18T04:50:01;1001.160766813011;;;6.882565711304335;48.10317231815942
46382;BME280;66809;52.974;-2.514;2023-11-18T04:52:01;1001.1286530238136;;;6.905874796676716;48.08457994370187
46382;BME280;66809;52.974;-2.514;2023-11-18T04:54:00;1001.0995228902308;;;6.922446461583501;48.06069234653094
46382;BME280;66809;52.974;-2.514;2023-11-18T04:56:01;1001.0732481640106;;;6.939859412449;48.041600263793136
46382;BME280;66809;52.974;-2.514;2023-11-18T04:58:01;1001.0485852891532;;;6.957757772067404;48.032079219774765
46382;BME280;66809;52.974;-2.514;2023-11-18T05:00:01;1001.0217903461702;;;6.974353871877881;48.0249673720422
46382;BME280;66809;52.974;-2.514;2023-11-18T05:02:01;1000.9892365665559;;;6.999240601907135;48.00916116982614
46382;BME280;66809;52.974;-2.514;2023-11-18T05:04:00;1000.9553183080137;;;7.026943013943212;47.99682125192352
46382;BME280;66809;52.974;-2.514;2023-11-18T05:06:01;1000.9207264234587;;;7.043857582265359;48.002218217233334
46382;BME280;66809;52.974;-2.514;2023-11-18T05:08:01;1000.8842600699429;;;7.049218659216462;48.023072941623674
46382;BME280;66809;52.974;-2.514;2023-11-18T05:10:00;1000.8430965077708;;;7.063600224369233;48.02231022198348
46382;BME280;66809;52.974;-2.514;2023-11-18T05:12:00;1000.8016454554287;;;7.069707971969308;48.028394771246056
46382;BME280;66809;52.974;-2.514;2023-11-18T05:14:01;1000.7607042540807;;;7.100593895930987;48.02995049150653
46382;BME280;66809;52.974;-2.514;2023-11-18T05:16:00;1000.7214110635072;;;7.1162135401430255;48.03248567615122
46382;BME280;66809;52.974;-2.514;2023-11-18T05:18:00;1000.6827349294141;;;7.118816705321902;48.03557871408836
46382;BME280;66809;52.974;-2.514;2023-11-18T05:20:01;1000.6452842993826;;;7.140721985015221;48.034034602296614
46382;BME280;66809;52.974;-2.514;2023-11-18T05:22:01;1000.6099337669418;;;7.165263527520913;48.03217470889586
46382;BME280;66809;52.974;-2.514;2023-11-18T05:24:00;1000.5796803254641;;;7.1769679998670295;48.02950597460075
46382;BME280;66809;52.974;-2.514;2023-11-18T05:26:01;1000.553402278508;;;7.199839511026275;48.02621937526563
46382;BME280;66809;52.974;-2.514;2023-11-18T05:28:00;1000.5319174646296;;;7.21564597035542;48.018788692774926
46382;BME280;66809;52.974;-2.514;2023-11-18T05:30:00;1000.5119159499753;;;7.231057583682101;48.010077770306495
46382;BME280;66809;52.974;-2.514;2023-11-18T05:32:01;1000.4883463966388;;;7.236477322145551;47.99749774773915
46382;BME280;66809;52.974;-2.514;2023-11-18T05:34:00;1000.4629866907314;;;7.266305551405018;47.97746698956293
46382;BME280;66809;52.974;-2.514;2023-11-18T05:36:00;1000.4370787280826;;;7.282447062095375;47.95045674406894
46382;BME280;66809;52.974;-2.514;2023-11-18T05:38:01;1000.4140779866697;;;7.302452545031014;47.935231808350714
46382;BME280;66809;52.974;-2.514;2023-11-18T05:40:01;1000.3904982502768;;;7.309578941606055;47.92396484489372
46382;BME280;66809;52.974;-2.514;2023-11-18T05:42:00;1000.3664469331384;;;7.31837729680183;47.91203847904403
46382;BME280;66809;52.974;-2.514;2023-11-18T05:44:01;1000.341330952923;;;7.340938033294554;47.900270792148454
46382;BME280;66809;52.974;-2.514;2023-11-18T05:46:00;1000.3173339822588;;;7.353835625370632;47.899158261473154
46382;BME280;66809;52.974;-2.514;2023-11-18T05:48:00;1000.2895435036273;;;7.360876115098892;47.89512519217187
46382;BME280;66809;52.974;-2.514;2023-11-18T05:50:01;1000.2602234250371;;;7.369886656890391;47.90581908955618
46382;BME280;66809;52.974;-2.514;2023-11-18T05:52:00;1000.2362887910286;;;7.385353289921343;47.912654612041095
46382;BME280;66809;52.974;-2.514;2023-11-18T05:54:00;1000.2182751581521;;;7.403047463287101;47.92674244324912
46382;BME280;66809;52.974;-2.514;2023-11-18T05:56:01;1000.2012858234114;;;7.418554185984964;47.94159386927142
46382;BME280;66809;52.974;-2.514;2023-11-18T05:58:00;1000.182474917717;;;7.424100193841274;47.96101091739691
46382;BME280;66809;52.974;-2.514;2023-11-18T06:00:00;1000.1617762917958;;;7.439576277122347;47.982949480068484
46382;BME280;66809;52.974;-2.514;2023-11-18T06:02:01;1000.139279243441;;;7.454419251232606;48.00469621863469
46382;BME280;66809;52.974;-2.514;2023-11-18T06:04:01;1000.1159203094332;;;7.4568891364127365;48.02064741992951
46382;BME280;66809;52.974;-2.514;2023-11-18T06:06:00;1000.0949458313581;;;7.46497330268891;48.021571169322364
46382;BME280;66809;52.974;-2.514;2023-11-18T06:08:01;1000.078474506984;;;7.4868439497223225;48.01565098778887
46382;BME280;66809;52.974;-2.514;2023-11-18T06:10:00;1000.0626453389056;;;7.504037811775226;48.021114160224215
46382;BME280;66809;52.974;-2.514;2023-11-18T06:12:00;1000.0443310669774;;;7.524052766776535;48.02791955076471
46382;BME280;66809;52.974;-2.514;2023-11-18T06:14:01;1000.0220247075952;;;7.531755065802149;48.03970678713323
46382;BME280;66809;52.974;-2.514;2023-11-18T06:16:01;999.9964992515106;;;7.540861529335882;48.05970138041347
46382;BME280;66809;52.974;-2.514;2023-11-18T06:18:00;999.9698669119828;;;7.550240902563375;48.09108295716874
46382;BME280;66809;52.974;-2.514;2023-11-18T06:20:00;999.9422487598164;;;7.558617487846023;48.12771284370977
46382;BME280;66809;52.974;-2.514;2023-11-18T06:22:01;999.9131556732702;;;7.561348917202855;48.16012793492705
46382;BME280;66809;52.974;-2.514;2023-11-18T06:24:02;999.8824507756842;;;7.570361065039994;48.202222281346415
46382;BME280;66809;52.974;-2.514;2023-11-18T06:26:01;999.8473258299829;;;7.569301373898617;48.24746134967923
46382;BME280;66809;52.974;-2.514;2023-11-18T06:28:00;999.8070397369013;;;7.570887398818566;48.30349261991276
46382;BME280;66809;52.974;-2.514;2023-11-18T06:30:01;999.7655158396493;;;7.561216923878003;48.37218440782025
46382;BME280;66809;52.974;-2.514;2023-11-18T06:32:01;999.7231997197174;;;7.557126306835574;48.45019663512033
46382;BME280;66809;52.974;-2.514;2023-11-18T06:34:00;999.6828268711669;;;7.538955128669494;48.533314045893604
46382;BME280;66809;52.974;-2.514;2023-11-18T06:36:01;999.6443223674416;;;7.520681204542707;48.6266835261739
46382;BME280;66809;52.974;-2.514;2023-11-18T06:38:01;999.6014685658704;;;7.508513489780599;48.723732461829954
46382;BME280;66809;52.974;-2.514;2023-11-18T06:40:01;999.5551822671786;;;7.4941613073965465;48.82706119999856
46382;BME280;66809;52.974;-2.514;2023-11-18T06:42:00;999.5035780543975;;;7.486202046549851;48.93576555003968
46382;BME280;66809;52.974;-2.514;2023-11-18T06:44:01;999.456247163818;;;7.472773217282642;49.05867709277173
46382;BME280;66809;52.974;-2.514;2023-11-18T06:46:01;999.4116068232211;;;7.45547201583617;49.17097067867761
46382;BME280;66809;52.974;-2.514;2023-11-18T06:48:00;999.3729430914449;;;7.4440428199717825;49.29583068183824
46382;BME280;66809;52.974;-2.514;2023-11-18T06:50:01;999.3379804882596;;;7.435934248692451;49.405532488080205
46382;BME280;66809;52.974;-2.514;2023-11-18T06:52:01;999.3003737362826;;;7.413619090618935;49.52304835675255
46382;BME280;66809;52.974;-2.514;2023-11-18T06:54:01;999.2632975826049;;;7.401451383941638;49.63257579992337
46382;BME280;66809;52.974;-2.514;2023-11-18T06:56:01;999.2218242461716;;;7.389041936916219;49.74177147074099
46382;BME280;66809;52.974;-2.514;2023-11-18T06:58:00;999.1777663737255;;;7.3922337754935645;49.835579425764884
46382;BME280;66809;52.974;-2.514;2023-11-18T07:00:01;999.1288052541906;;;7.387563452606864;49.93341050239017
46382;BME280;66809;52.974;-2.514;2023-11-18T07:02:01;999.0793654491442;;;7.388750242954389;50.03154658771322
46382;BME280;66809;52.974;-2.514;2023-11-18T07:04:01;999.029979487663;;;7.390698613955096;50.12612363491876
46382;BME280;66809;52.974;-2.514;2023-11-18T07:06:01;998.9790804149183;;;7.37959144146033;50.221543910578504
46382;BME280;66809;52.974;-2.514;2023-11-18T07:08:00;998.9256054146159;;;7.374540048688891;50.31037734699444
46382;BME280;66809;52.974;-2.514;2023-11-18T07:10:00;998.8790451813395;;;7.375805959077911;50.40585122464721
46382;BME280;66809;52.974;-2.514;2023-11-18T07:12:01;998.8343175727575;;;7.3688996798812845;50.48754576305375